createdAt,value
2023-02-24T00:00:31.982Z,5.10
2023-02-24T00:03:05.754Z,5.10
2023-02-24T00:05:39.149Z,5.20
2023-02-24T00:08:07.224Z,5.20
2023-02-24T00:10:37.437Z,5.20
2023-02-24T00:13:05.433Z,5.10
2023-02-24T00:15:35.232Z,5.10
2023-02-24T00:18:06.975Z,5.10
2023-02-24T00:20:35.579Z,5.10
2023-02-24T00:23:03.702Z,5.10
2023-02-24T00:25:31.633Z,5.10
2023-02-24T00:28:02.219Z,5.10
2023-02-24T00:30:32.778Z,5.00
2023-02-24T00:33:03.367Z,5.10
2023-02-24T00:35:31.415Z,5.10
2023-02-24T00:37:59.484Z,5.00
2023-02-24T00:40:30.182Z,5.00
2023-02-24T00:42:58.397Z,5.00
2023-02-24T00:45:30.362Z,5.00
2023-02-24T00:47:58.367Z,5.00
2023-02-24T00:50:27.697Z,5.00
2023-02-24T00:52:55.643Z,5.00
2023-02-24T00:55:23.771Z,5.00
2023-02-24T00:57:51.762Z,5.00
2023-02-24T01:00:21.308Z,5.00
2023-02-24T01:02:49.368Z,4.90
2023-02-24T01:05:17.360Z,4.90
2023-02-24T01:07:46.598Z,4.90
2023-02-24T01:10:14.522Z,4.90
2023-02-24T01:12:50.325Z,4.80
2023-02-24T01:15:20.611Z,4.60
2023-02-24T01:17:49.024Z,4.30
2023-02-24T01:20:18.863Z,4.10
2023-02-24T01:22:50.546Z,4.10
2023-02-24T01:25:20.209Z,4.10
2023-02-24T01:27:48.165Z,4.10
2023-02-24T01:30:18.073Z,4.20
2023-02-24T01:32:47.216Z,4.20
2023-02-24T01:35:17.612Z,4.20
2023-02-24T01:37:46.251Z,4.20
2023-02-24T01:40:21.676Z,4.20
2023-02-24T01:42:50.627Z,4.20
2023-02-24T01:45:24.999Z,4.20
2023-02-24T01:47:53.968Z,4.00
2023-02-24T01:50:25.922Z,4.20
2023-02-24T01:52:56.496Z,4.20
2023-02-24T01:55:32.231Z,4.20
2023-02-24T01:58:02.476Z,4.20
2023-02-24T02:00:37.582Z,4.30
2023-02-24T02:03:11.880Z,4.30
2023-02-24T02:05:41.625Z,4.40
2023-02-24T02:08:11.255Z,4.40
2023-02-24T02:10:44.294Z,4.40
2023-02-24T02:13:14.147Z,4.40
2023-02-24T02:15:52.078Z,4.40
2023-02-24T02:18:33.223Z,4.40
2023-02-24T02:21:38.049Z,4.40
2023-02-24T02:24:28.269Z,4.30
2023-02-24T02:27:29.375Z,4.20
2023-02-24T02:30:36.127Z,4.30
2023-02-24T02:33:41.805Z,4.20
2023-02-24T02:36:19.144Z,4.30
2023-02-24T02:38:55.137Z,4.50
2023-02-24T02:41:29.457Z,4.40
2023-02-24T02:44:04.152Z,4.30
2023-02-24T02:46:37.773Z,4.40
2023-02-24T02:49:14.178Z,4.50
2023-02-24T02:51:51.535Z,4.70
2023-02-24T02:54:29.605Z,4.60
2023-02-24T02:57:03.279Z,4.70
2023-02-24T02:59:33.456Z,4.70
2023-02-24T03:02:11.601Z,4.70
2023-02-24T03:04:43.300Z,4.70
2023-02-24T03:07:17.674Z,4.70
2023-02-24T03:09:51.541Z,4.70
2023-02-24T03:12:22.457Z,4.60
2023-02-24T03:14:56.689Z,4.50
2023-02-24T03:17:27.205Z,4.60
2023-02-24T03:20:01.668Z,4.70
2023-02-24T03:22:37.859Z,4.80
2023-02-24T03:25:06.885Z,4.80
2023-02-24T03:27:44.428Z,4.80
2023-02-24T03:30:16.956Z,4.90
2023-02-24T03:32:55.810Z,4.80
2023-02-24T03:35:27.261Z,4.90
2023-02-24T03:37:59.368Z,4.90
2023-02-24T03:40:29.830Z,4.80
2023-02-24T03:43:05.334Z,4.90
2023-02-24T03:45:37.908Z,4.90
2023-02-24T03:48:07.849Z,4.90
2023-02-24T03:50:37.962Z,4.80
2023-02-24T03:53:17.690Z,4.90
2023-02-24T03:55:59.013Z,4.70
2023-02-24T03:58:36.895Z,4.80
2023-02-24T04:01:13.043Z,4.80
2023-02-24T04:03:49.735Z,4.70
2023-02-24T04:06:23.414Z,4.60
2023-02-24T04:09:01.530Z,4.50
2023-02-24T04:11:37.380Z,4.40
2023-02-24T04:14:08.789Z,4.40
2023-02-24T04:16:43.077Z,4.40
2023-02-24T04:19:15.196Z,4.30
2023-02-24T04:21:45.277Z,4.40
2023-02-24T04:24:17.895Z,4.50
2023-02-24T04:26:47.365Z,4.50
2023-02-24T04:29:23.170Z,4.50
2023-02-24T04:31:58.591Z,4.50
2023-02-24T04:34:32.230Z,4.40
2023-02-24T04:37:02.258Z,4.50
2023-02-24T04:39:32.318Z,4.40
2023-02-24T04:42:01.630Z,4.40
2023-02-24T04:44:29.680Z,4.40
2023-02-24T04:46:58.134Z,4.20
2023-02-24T04:49:26.928Z,4.40
2023-02-24T04:51:57.130Z,4.50
2023-02-24T04:54:25.044Z,4.40
2023-02-24T04:56:54.297Z,4.20
2023-02-24T04:59:23.440Z,4.10
2023-02-24T05:01:53.058Z,3.90
2023-02-24T05:04:21.402Z,4.00
2023-02-24T05:06:49.350Z,4.20
2023-02-24T05:09:18.590Z,4.10
2023-02-24T05:11:49.073Z,3.90
2023-02-24T05:14:20.772Z,3.70
2023-02-24T05:16:50.083Z,3.60
2023-02-24T05:19:37.128Z,3.70
2023-02-24T05:22:07.073Z,3.80
2023-02-24T05:24:35.756Z,4.00
2023-02-24T05:27:04.211Z,4.00
2023-02-24T05:29:36.357Z,4.00
2023-02-24T05:32:05.751Z,4.00
2023-02-24T05:34:34.870Z,4.00
2023-02-24T05:37:10.204Z,4.10
2023-02-24T05:39:38.587Z,4.10
2023-02-24T05:42:07.138Z,4.10
2023-02-24T05:44:36.874Z,4.20
2023-02-24T05:47:05.988Z,4.10
2023-02-24T05:49:35.878Z,4.20
2023-02-24T05:52:07.891Z,4.20
2023-02-24T05:54:38.341Z,4.20
2023-02-24T05:57:08.979Z,4.20
2023-02-24T05:59:38.941Z,4.20
2023-02-24T06:02:09.485Z,4.10
2023-02-24T06:04:46.377Z,4.00
2023-02-24T06:07:18.923Z,4.10
2023-02-24T06:09:50.175Z,4.20
2023-02-24T06:12:19.579Z,4.10
2023-02-24T06:14:49.152Z,4.00
2023-02-24T06:17:18.591Z,4.00
2023-02-24T06:19:47.987Z,4.10
2023-02-24T06:22:19.104Z,3.90
2023-02-24T06:24:49.368Z,3.90
2023-02-24T06:27:19.586Z,3.90
2023-02-24T06:29:50.750Z,4.00
2023-02-24T06:32:19.165Z,4.10
2023-02-24T06:34:47.346Z,4.10
2023-02-24T06:37:18.200Z,3.80
2023-02-24T06:39:46.295Z,3.70
2023-02-24T06:42:14.900Z,3.90
2023-02-24T06:44:43.033Z,3.80
2023-02-24T06:47:16.242Z,3.80
2023-02-24T06:49:44.255Z,4.10
2023-02-24T06:52:18.220Z,4.30
2023-02-24T06:54:47.953Z,4.30
2023-02-24T06:57:15.925Z,4.40
2023-02-24T06:59:43.862Z,4.40
2023-02-24T07:02:13.160Z,4.50
2023-02-24T07:04:44.528Z,4.40
2023-02-24T07:07:14.169Z,4.40
2023-02-24T07:09:45.354Z,4.30
2023-02-24T07:12:13.622Z,4.00
2023-02-24T07:14:42.428Z,4.30
2023-02-24T07:17:10.596Z,4.40
2023-02-24T07:19:41.463Z,4.50
2023-02-24T07:22:10.941Z,4.70
2023-02-24T07:24:46.045Z,4.70
2023-02-24T07:27:21.894Z,4.90
2023-02-24T07:29:52.970Z,5.10
2023-02-24T07:32:23.393Z,5.10
2023-02-24T07:34:53.204Z,4.90
2023-02-24T07:37:23.138Z,4.90
2023-02-24T07:39:51.694Z,5.10
2023-02-24T07:42:19.667Z,5.10
2023-02-24T07:44:49.220Z,5.10
2023-02-24T07:47:17.258Z,5.10
2023-02-24T07:49:45.827Z,5.10
2023-02-24T07:52:16.278Z,5.20
2023-02-24T07:54:44.491Z,5.00
2023-02-24T07:57:13.939Z,5.10
2023-02-24T07:59:46.829Z,4.90
2023-02-24T08:02:15.267Z,4.90
2023-02-24T08:04:49.810Z,5.00
2023-02-24T08:07:24.590Z,5.00
2023-02-24T08:10:14.140Z,5.30
2023-02-24T08:12:47.614Z,5.50
2023-02-24T08:15:23.556Z,5.50
2023-02-24T08:17:53.259Z,5.60
2023-02-24T08:20:25.939Z,5.50
2023-02-24T08:22:56.300Z,5.50
2023-02-24T08:25:35.590Z,5.50
2023-02-24T08:28:08.915Z,5.30
2023-02-24T08:30:39.841Z,5.30
2023-02-24T08:33:10.166Z,5.30
2023-02-24T08:35:44.384Z,5.10
2023-02-24T08:38:16.878Z,5.10
2023-02-24T08:40:54.850Z,5.20
2023-02-24T08:43:33.184Z,5.20
2023-02-24T08:46:06.501Z,5.20
2023-02-24T08:48:42.234Z,5.30
2023-02-24T08:51:15.102Z,5.50
2023-02-24T08:53:46.733Z,5.70
2023-02-24T08:56:23.970Z,5.70
2023-02-24T08:58:56.974Z,5.70
2023-02-24T09:01:28.064Z,5.50
2023-02-24T09:03:58.154Z,5.90
2023-02-24T09:06:35.610Z,6.10
2023-02-24T09:09:22.572Z,6.00
2023-02-24T09:11:56.128Z,6.20
2023-02-24T09:14:28.685Z,6.20
2023-02-24T09:17:05.953Z,6.30
2023-02-24T09:20:01.878Z,6.30
2023-02-24T09:22:32.338Z,6.50
2023-02-24T09:25:19.257Z,6.70
2023-02-24T09:27:52.550Z,6.80
2023-02-24T09:30:42.411Z,6.90
2023-02-24T09:33:18.953Z,6.90
2023-02-24T09:35:49.063Z,7.00
2023-02-24T09:38:19.126Z,7.00
2023-02-24T09:40:50.334Z,7.00
2023-02-24T09:43:21.710Z,7.10
2023-02-24T09:45:58.366Z,7.70
2023-02-24T09:48:43.564Z,8.00
2023-02-24T09:51:21.660Z,8.00
2023-02-24T09:53:56.624Z,7.90
2023-02-24T09:56:36.916Z,8.10
2023-02-24T09:59:14.030Z,8.40
2023-02-24T10:01:48.351Z,8.00
2023-02-24T10:04:28.771Z,8.30
2023-02-24T10:07:03.061Z,8.40
2023-02-24T10:09:35.408Z,8.20
2023-02-24T10:12:19.532Z,8.30
2023-02-24T10:14:52.938Z,8.30
2023-02-24T10:17:30.530Z,8.30
2023-02-24T10:20:02.364Z,8.20
2023-02-24T10:22:50.330Z,8.20
2023-02-24T10:25:36.032Z,8.20
2023-02-24T10:28:17.914Z,8.30
2023-02-24T10:31:01.560Z,8.30
2023-02-24T10:33:38.708Z,8.50
2023-02-24T10:36:09.154Z,8.40
2023-02-24T10:38:38.219Z,8.20
2023-02-24T10:41:07.139Z,8.10
2023-02-24T10:43:45.469Z,7.90
2023-02-24T10:46:39.929Z,7.90
2023-02-24T10:49:16.251Z,8.50
2023-02-24T10:51:50.009Z,8.70
2023-02-24T10:54:44.822Z,9.00
2023-02-24T10:57:23.120Z,8.90
2023-02-24T11:00:27.480Z,9.00
2023-02-24T11:03:07.136Z,8.90
2023-02-24T11:05:44.344Z,9.10
2023-02-24T11:08:36.328Z,8.90
2023-02-24T11:11:20.219Z,8.90
2023-02-24T11:14:10.312Z,8.80
2023-02-24T11:17:08.706Z,8.60
2023-02-24T11:19:43.978Z,8.50
2023-02-24T11:22:16.076Z,8.60
2023-02-24T11:24:46.261Z,8.80
2023-02-24T11:27:17.341Z,8.80
2023-02-24T11:30:06.162Z,8.70
2023-02-24T11:33:02.754Z,8.70
2023-02-24T11:35:38.061Z,8.70
2023-02-24T11:38:18.171Z,8.60
2023-02-24T11:40:53.304Z,8.20
2023-02-24T11:43:28.401Z,8.20
2023-02-24T11:46:03.290Z,8.00
2023-02-24T11:48:38.390Z,7.80
2023-02-24T11:51:10.163Z,7.80
2023-02-24T11:53:44.602Z,7.90
2023-02-24T11:56:16.629Z,7.90
2023-02-24T11:58:49.452Z,7.80
2023-02-24T12:01:24.417Z,7.90
2023-02-24T12:04:02.857Z,7.90
2023-02-24T12:06:37.514Z,8.00
2023-02-24T12:09:15.500Z,8.20
2023-02-24T12:11:53.180Z,8.30
2023-02-24T12:14:31.819Z,8.10
2023-02-24T12:17:17.972Z,8.20
2023-02-24T12:20:05.527Z,8.40
2023-02-24T12:22:44.642Z,8.70
2023-02-24T12:25:14.933Z,8.60
2023-02-24T12:27:58.660Z,8.40
2023-02-24T12:30:38.825Z,8.40
2023-02-24T12:33:19.312Z,8.50
2023-02-24T12:36:02.944Z,8.20
2023-02-24T12:38:51.246Z,8.00
2023-02-24T12:41:41.722Z,7.90
2023-02-24T12:44:22.390Z,7.80
2023-02-24T12:46:58.341Z,7.80
2023-02-24T12:49:50.117Z,8.00
2023-02-24T12:52:28.072Z,7.90
2023-02-24T12:55:02.779Z,8.00
2023-02-24T12:57:37.125Z,8.00
2023-02-24T13:00:12.693Z,7.90
2023-02-24T13:02:53.305Z,8.10
2023-02-24T13:05:29.407Z,8.20
2023-02-24T13:08:13.560Z,8.20
2023-02-24T13:10:47.433Z,8.20
2023-02-24T13:13:24.494Z,8.00
2023-02-24T13:15:54.056Z,8.50
2023-02-24T13:18:26.648Z,8.90
2023-02-24T13:21:05.684Z,8.70
2023-02-24T13:23:36.018Z,8.70
2023-02-24T13:26:04.886Z,8.80
2023-02-24T13:28:36.254Z,9.10
2023-02-24T13:31:06.675Z,9.30
2023-02-24T13:33:36.531Z,9.00
2023-02-24T13:36:15.002Z,8.50
2023-02-24T13:38:46.828Z,8.80
2023-02-24T13:41:40.617Z,9.00
2023-02-24T13:44:28.465Z,8.60
2023-02-24T13:47:23.786Z,8.60
2023-02-24T13:50:03.243Z,8.50
2023-02-24T13:52:43.658Z,8.50
2023-02-24T13:55:29.290Z,8.90
2023-02-24T13:58:18.264Z,8.60
2023-02-24T14:00:58.415Z,8.70
2023-02-24T14:03:29.799Z,8.60
2023-02-24T14:05:59.894Z,8.50
2023-02-24T14:08:36.537Z,8.50
2023-02-24T14:11:10.958Z,8.50
2023-02-24T14:13:39.866Z,8.50
2023-02-24T14:16:11.853Z,8.40
2023-02-24T14:18:41.030Z,8.70
2023-02-24T14:21:22.298Z,8.50
2023-02-24T14:23:57.145Z,8.20
2023-02-24T14:26:27.396Z,8.30
2023-02-24T14:29:00.398Z,8.30
2023-02-24T14:31:30.029Z,8.40
2023-02-24T14:34:01.218Z,8.40
2023-02-24T14:36:32.785Z,8.40
2023-02-24T14:39:04.784Z,8.40
2023-02-24T14:41:34.445Z,8.30
2023-02-24T14:44:12.035Z,7.90
2023-02-24T14:46:48.657Z,7.90
2023-02-24T14:49:21.270Z,7.90
2023-02-24T14:51:54.879Z,8.10
2023-02-24T14:54:31.580Z,8.20
2023-02-24T14:57:01.841Z,8.20
2023-02-24T14:59:35.074Z,8.30
2023-02-24T15:02:04.142Z,8.40
2023-02-24T15:04:36.721Z,8.40
2023-02-24T15:07:07.236Z,8.30
2023-02-24T15:09:38.207Z,8.40
2023-02-24T15:12:22.521Z,8.30
2023-02-24T15:14:53.675Z,8.10
2023-02-24T15:17:23.134Z,8.10
2023-02-24T15:19:55.545Z,8.10
2023-02-24T15:22:26.757Z,8.50
2023-02-24T15:24:56.797Z,8.50
2023-02-24T15:27:28.772Z,8.30
2023-02-24T15:30:02.313Z,8.00
2023-02-24T15:32:33.613Z,7.80
2023-02-24T15:35:02.049Z,7.70
2023-02-24T15:37:34.674Z,7.60
2023-02-24T15:40:18.691Z,7.30
2023-02-24T15:42:53.756Z,7.10
2023-02-24T15:45:28.268Z,7.10
2023-02-24T15:47:58.044Z,7.20
2023-02-24T15:50:26.767Z,7.20
2023-02-24T15:52:57.046Z,7.10
2023-02-24T15:55:26.828Z,6.90
2023-02-24T15:58:01.724Z,7.00
2023-02-24T16:00:31.013Z,7.10
2023-02-24T16:02:59.317Z,7.10
2023-02-24T16:05:27.673Z,6.90
2023-02-24T16:07:55.824Z,7.00
2023-02-24T16:10:26.405Z,7.10
2023-02-24T16:12:56.422Z,7.30
2023-02-24T16:15:28.995Z,7.30
2023-02-24T16:17:58.199Z,7.50
2023-02-24T16:20:28.556Z,7.50
2023-02-24T16:22:57.326Z,7.40
2023-02-24T16:25:26.479Z,7.60
2023-02-24T16:27:57.235Z,7.70
2023-02-24T16:30:30.515Z,7.50
2023-02-24T16:32:59.455Z,7.50
2023-02-24T16:35:28.526Z,7.50
2023-02-24T16:37:56.513Z,7.70
2023-02-24T16:40:27.886Z,7.90
2023-02-24T16:42:56.363Z,7.90
2023-02-24T16:45:29.395Z,7.80
2023-02-24T16:48:02.190Z,7.80
2023-02-24T16:50:34.110Z,7.80
2023-02-24T16:53:02.464Z,7.70
2023-02-24T16:55:30.406Z,7.70
2023-02-24T16:57:58.448Z,7.80
2023-02-24T17:00:28.373Z,7.80
2023-02-24T17:02:56.482Z,7.80
2023-02-24T17:05:27.221Z,7.60
2023-02-24T17:07:57.362Z,7.50
2023-02-24T17:10:26.438Z,7.30
2023-02-24T17:12:54.353Z,7.30
2023-02-24T17:15:25.626Z,7.20
2023-02-24T17:17:54.885Z,7.30
2023-02-24T17:20:23.376Z,7.40
2023-02-24T17:22:51.354Z,7.50
2023-02-24T17:25:21.160Z,7.20
2023-02-24T17:27:49.236Z,7.20
2023-02-24T17:30:19.241Z,7.40
2023-02-24T17:32:47.321Z,7.60
2023-02-24T17:35:17.000Z,7.60
2023-02-24T17:37:45.184Z,7.60
2023-02-24T17:40:14.425Z,7.60
2023-02-24T17:42:42.774Z,7.50
2023-02-24T17:45:12.283Z,7.50
2023-02-24T17:47:40.935Z,7.50
2023-02-24T17:50:10.587Z,7.40
2023-02-24T17:52:41.232Z,7.40
2023-02-24T17:55:10.350Z,7.40
2023-02-24T17:57:39.723Z,7.40
2023-02-24T18:00:09.436Z,7.40
2023-02-24T18:02:38.517Z,7.40
2023-02-24T18:05:07.055Z,7.40
2023-02-24T18:07:35.127Z,7.40
2023-02-24T18:10:05.168Z,7.40
2023-02-24T18:12:33.199Z,7.20
2023-02-24T18:15:08.691Z,7.20
2023-02-24T18:17:38.370Z,7.20
2023-02-24T18:20:08.348Z,7.10
2023-02-24T18:22:36.870Z,7.10
2023-02-24T18:25:07.382Z,7.00
2023-02-24T18:27:35.384Z,7.10
2023-02-24T18:30:03.660Z,7.20
2023-02-24T18:32:31.845Z,7.20
2023-02-24T18:35:00.115Z,7.20
2023-02-24T18:37:28.350Z,7.10
2023-02-24T18:39:56.438Z,7.00
2023-02-24T18:42:25.930Z,7.00
2023-02-24T18:44:53.855Z,7.00
2023-02-24T18:47:21.787Z,7.00
2023-02-24T18:49:49.869Z,6.80
2023-02-24T18:52:17.803Z,6.70
2023-02-24T18:54:46.691Z,6.60
2023-02-24T18:57:14.613Z,6.50
2023-02-24T18:59:44.053Z,6.60
2023-02-24T19:02:12.135Z,6.60
2023-02-24T19:04:40.375Z,6.60
2023-02-24T19:07:08.428Z,6.30
2023-02-24T19:09:36.486Z,6.50
2023-02-24T19:12:04.527Z,6.50
2023-02-24T19:14:32.488Z,6.20
2023-02-24T19:17:02.953Z,6.00
2023-02-24T19:19:31.103Z,5.90
2023-02-24T19:21:59.090Z,6.00
2023-02-24T19:24:27.301Z,6.00
2023-02-24T19:26:55.481Z,5.90
2023-02-24T19:29:23.568Z,6.00
2023-02-24T19:31:54.046Z,6.00
2023-02-24T19:34:23.570Z,5.90
2023-02-24T19:36:51.484Z,6.00
2023-02-24T19:39:19.486Z,6.40
2023-02-24T19:41:49.525Z,6.60
2023-02-24T19:44:17.835Z,6.80
2023-02-24T19:46:45.975Z,6.50
2023-02-24T19:49:13.902Z,6.50
2023-02-24T19:51:46.023Z,6.60
2023-02-24T19:54:16.005Z,6.40
2023-02-24T19:56:44.001Z,6.20
2023-02-24T19:59:12.284Z,6.00
2023-02-24T20:01:40.522Z,6.10
2023-02-24T20:04:09.211Z,6.50
2023-02-24T20:06:39.123Z,6.80
2023-02-24T20:09:11.415Z,6.90
2023-02-24T20:11:40.331Z,6.90
2023-02-24T20:14:09.716Z,6.90
2023-02-24T20:16:38.309Z,6.80
2023-02-24T20:19:09.081Z,6.80
2023-02-24T20:21:38.474Z,6.70
2023-02-24T20:24:10.129Z,6.60
2023-02-24T20:26:41.236Z,6.60
2023-02-24T20:29:11.180Z,6.40
2023-02-24T20:31:39.489Z,6.50
2023-02-24T20:34:09.196Z,6.50
2023-02-24T20:36:37.823Z,6.50
2023-02-24T20:39:07.488Z,6.50
2023-02-24T20:41:36.770Z,6.50
2023-02-24T20:44:05.135Z,6.50
2023-02-24T20:46:34.082Z,6.60
2023-02-24T20:49:03.961Z,6.60
2023-02-24T20:51:33.252Z,6.60
2023-02-24T20:54:01.829Z,6.60
2023-02-24T20:56:34.043Z,6.60
2023-02-24T20:59:05.520Z,6.60
2023-02-24T21:01:34.711Z,6.50
2023-02-24T21:04:03.373Z,6.40
2023-02-24T21:06:31.605Z,6.30
2023-02-24T21:08:59.956Z,6.30
2023-02-24T21:11:29.715Z,5.90
2023-02-24T21:13:57.738Z,5.30
2023-02-24T21:16:27.942Z,5.20
2023-02-24T21:18:58.589Z,5.20
2023-02-24T21:21:26.732Z,5.00
2023-02-24T21:23:55.134Z,4.80
2023-02-24T21:26:27.000Z,4.70
2023-02-24T21:28:57.944Z,4.80
2023-02-24T21:31:28.408Z,4.80
2023-02-24T21:33:57.019Z,4.70
2023-02-24T21:36:26.292Z,4.80
2023-02-24T21:38:54.924Z,4.80
2023-02-24T21:41:23.812Z,5.10
2023-02-24T21:43:54.662Z,4.80
2023-02-24T21:46:24.623Z,4.70
2023-02-24T21:48:56.161Z,4.50
2023-02-24T21:51:24.830Z,4.40
2023-02-24T21:53:54.855Z,4.30
2023-02-24T21:56:25.653Z,4.20
2023-02-24T21:58:57.522Z,4.40
2023-02-24T22:01:27.854Z,4.50
2023-02-24T22:03:58.309Z,4.80
2023-02-24T22:06:30.283Z,5.00
2023-02-24T22:08:59.821Z,4.90
2023-02-24T22:11:27.922Z,5.00
2023-02-24T22:13:55.820Z,5.00
2023-02-24T22:16:26.338Z,4.80
2023-02-24T22:18:55.549Z,4.70
2023-02-24T22:21:27.679Z,4.70
2023-02-24T22:23:58.349Z,4.40
2023-02-24T22:26:26.823Z,4.20
2023-02-24T22:28:55.923Z,3.90
2023-02-24T22:31:25.654Z,3.90
2023-02-24T22:33:53.924Z,3.90
2023-02-24T22:36:25.993Z,3.80
2023-02-24T22:38:54.243Z,3.90
2023-02-24T22:41:24.761Z,3.90
2023-02-24T22:43:53.916Z,4.00
2023-02-24T22:46:24.019Z,3.80
2023-02-24T22:48:52.195Z,3.90
2023-02-24T22:51:20.732Z,4.10
2023-02-24T22:53:51.021Z,4.00
2023-02-24T22:56:21.912Z,3.90
2023-02-24T22:58:50.206Z,3.90
2023-02-24T23:01:21.828Z,4.00
2023-02-24T23:03:50.141Z,4.00
2023-02-24T23:06:20.298Z,4.10
2023-02-24T23:08:51.524Z,4.10
2023-02-24T23:11:21.570Z,4.10
2023-02-24T23:13:51.080Z,3.80
2023-02-24T23:16:21.901Z,3.90
2023-02-24T23:18:53.671Z,3.90
2023-02-24T23:21:24.866Z,3.80
2023-02-24T23:23:57.012Z,3.80
2023-02-24T23:26:30.065Z,3.70
2023-02-24T23:28:58.061Z,3.50
2023-02-24T23:31:26.392Z,3.70
2023-02-24T23:33:55.746Z,3.60
2023-02-24T23:36:25.214Z,3.20
2023-02-24T23:38:57.199Z,3.20
2023-02-24T23:41:25.434Z,3.50
2023-02-24T23:43:53.368Z,3.40
2023-02-24T23:46:21.676Z,3.50
2023-02-24T23:48:52.424Z,3.30
2023-02-24T23:51:21.133Z,3.40
2023-02-24T23:53:49.348Z,3.40
2023-02-24T23:56:20.333Z,3.50
2023-02-24T23:58:51.633Z,3.40
